Accueil
METAR-TAF:

METAR-TAF

Aéroports :

Aéroport de Calvi-Sainte-Catherine

Calvi, France

latitude: 42-32N, longitude: 008-48E, altitude: 64 m

Observation

Le bulletin a été fait il y a 20 minutes, à 20:30 UTC
Vent 8 kt de sud, variant entre sud et sud-ouest
Température 15°C
Humidité 51%
Pression 1017 hPa
Visibilité 10 km ou plus
pas de nuages en-dessous de 1500 mètres et pas de cumulonimbus.

METAR: LFKC 222030Z AUTO 19008KT 170V230 CAVOK 15/05 Q1017 NOSIG

Heure: 22:50 (20:50 UTC)

Prévision

Le bulletin a été fait il y a 6 heures et 50 minutes, à 14:00 UTC
Prévision valable du 22 à 15 UTC au 23 à 15 UTC
Vent 11 kt de sud/sud-ouest
Visibilité 10 km ou plus
pas de nuages en-dessous de 1500 mètres et pas de cumulonimbus.

TAF: LFKC 221400Z 2215/2315 20011KT CAVOK TX21/2313Z TN12/2304Z

Observations et prévisions météorologiques de plus de 4000 aéroports (messages METAR et TAF).

Les stations disponibles sont représentées par des disques jaunes et rouges sur la carte.

Passer la souris dessus pour voir le nom de la station.

Cliquer dessus pour voir les observations et prévisions météorologiques.

Pour changer de carte: cliquez sur les boutons verts avec une croix noire pour zoomer, sur le bouton vert avec un tiret pour effectuer un zoom arrière, ou sur les flèches vertes pour les cartes adjacentes.


METAR-TAF: